sensor_id;sensor_type;location;lat;lon;timestamp;pressure;altitude;pressure_sealevel;temperature;humidity
34696;BME280;20918;51.138;17.370;2022-11-10T00:00:15;100254.53;;;7.50;81.18
34696;BME280;20918;51.138;17.370;2022-11-10T00:03:37;100254.57;;;7.54;81.24
34696;BME280;20918;51.138;17.370;2022-11-10T00:06:57;100256.59;;;7.56;81.28
34696;BME280;20918;51.138;17.370;2022-11-10T00:10:17;100255.47;;;7.59;81.32
34696;BME280;20918;51.138;17.370;2022-11-10T00:13:37;100252.20;;;7.61;81.36
34696;BME280;20918;51.138;17.370;2022-11-10T00:17:01;100264.30;;;7.63;81.41
34696;BME280;20918;51.138;17.370;2022-11-10T00:20:23;100261.86;;;7.66;81.47
34696;BME280;20918;51.138;17.370;2022-11-10T00:23:44;100261.07;;;7.70;81.47
34696;BME280;20918;51.138;17.370;2022-11-10T00:27:05;100258.27;;;7.71;81.48
34696;BME280;20918;51.138;17.370;2022-11-10T00:30:25;100262.92;;;7.73;81.50
34696;BME280;20918;51.138;17.370;2022-11-10T00:33:45;100265.27;;;7.76;81.50
34696;BME280;20918;51.138;17.370;2022-11-10T00:37:04;100273.40;;;7.79;81.50
34696;BME280;20918;51.138;17.370;2022-11-10T00:40:24;100276.25;;;7.81;81.55
34696;BME280;20918;51.138;17.370;2022-11-10T00:43:43;100272.28;;;7.81;81.56
34696;BME280;20918;51.138;17.370;2022-11-10T00:47:03;100285.82;;;7.82;81.56
34696;BME280;20918;51.138;17.370;2022-11-10T00:50:23;100287.02;;;7.84;81.58
34696;BME280;20918;51.138;17.370;2022-11-10T00:53:43;100285.69;;;7.84;81.64
34696;BME280;20918;51.138;17.370;2022-11-10T00:57:03;100287.34;;;7.85;81.76
34696;BME280;20918;51.138;17.370;2022-11-10T01:00:22;100289.66;;;7.84;81.84
34696;BME280;20918;51.138;17.370;2022-11-10T01:03:42;100295.43;;;7.83;81.88
34696;BME280;20918;51.138;17.370;2022-11-10T01:07:01;100292.92;;;7.82;81.95
34696;BME280;20918;51.138;17.370;2022-11-10T01:10:21;100300.52;;;7.81;82.04
34696;BME280;20918;51.138;17.370;2022-11-10T01:13:41;100294.73;;;7.81;82.25
34696;BME280;20918;51.138;17.370;2022-11-10T01:17:01;100294.53;;;7.79;82.23
34696;BME280;20918;51.138;17.370;2022-11-10T01:20:22;100300.18;;;7.80;82.28
34696;BME280;20918;51.138;17.370;2022-11-10T01:23:42;100301.50;;;7.80;82.41
34696;BME280;20918;51.138;17.370;2022-11-10T01:27:01;100298.78;;;7.76;82.48
34696;BME280;20918;51.138;17.370;2022-11-10T01:30:21;100300.94;;;7.76;82.59
34696;BME280;20918;51.138;17.370;2022-11-10T01:33:41;100300.11;;;7.76;82.71
34696;BME280;20918;51.138;17.370;2022-11-10T01:37:01;100301.09;;;7.75;82.75
34696;BME280;20918;51.138;17.370;2022-11-10T01:40:21;100309.35;;;7.76;82.84
34696;BME280;20918;51.138;17.370;2022-11-10T01:43:40;100305.06;;;7.75;82.99
34696;BME280;20918;51.138;17.370;2022-11-10T01:47:00;100304.90;;;7.76;83.36
34696;BME280;20918;51.138;17.370;2022-11-10T01:50:21;100304.90;;;7.76;83.36
34696;BME280;20918;51.138;17.370;2022-11-10T01:53:44;100300.80;;;7.78;83.48
34696;BME280;20918;51.138;17.370;2022-11-10T01:57:14;100305.59;;;7.78;83.60
34696;BME280;20918;51.138;17.370;2022-11-10T02:00:34;100309.89;;;7.79;83.76
34696;BME280;20918;51.138;17.370;2022-11-10T02:04:00;100312.89;;;7.80;83.95
34696;BME280;20918;51.138;17.370;2022-11-10T02:07:21;100321.85;;;7.83;84.04
34696;BME280;20918;51.138;17.370;2022-11-10T02:10:41;100328.30;;;7.85;84.13
34696;BME280;20918;51.138;17.370;2022-11-10T02:14:02;100329.48;;;7.86;84.34
34696;BME280;20918;51.138;17.370;2022-11-10T02:17:22;100331.50;;;7.89;84.51
34696;BME280;20918;51.138;17.370;2022-11-10T02:20:44;100327.71;;;7.91;84.67
34696;BME280;20918;51.138;17.370;2022-11-10T02:24:04;100330.09;;;7.94;84.91
34696;BME280;20918;51.138;17.370;2022-11-10T02:27:24;100330.27;;;7.97;85.05
34696;BME280;20918;51.138;17.370;2022-11-10T02:30:44;100327.36;;;8.00;85.18
34696;BME280;20918;51.138;17.370;2022-11-10T02:34:03;100337.14;;;8.03;85.28
34696;BME280;20918;51.138;17.370;2022-11-10T02:37:23;100339.16;;;8.05;85.38
34696;BME280;20918;51.138;17.370;2022-11-10T02:40:42;100336.36;;;8.07;85.50
34696;BME280;20918;51.138;17.370;2022-11-10T02:44:03;100334.91;;;8.08;85.64
34696;BME280;20918;51.138;17.370;2022-11-10T02:47:24;100343.99;;;8.10;85.68
34696;BME280;20918;51.138;17.370;2022-11-10T02:50:44;100344.69;;;8.12;85.80
34696;BME280;20918;51.138;17.370;2022-11-10T02:54:03;100344.39;;;8.15;85.90
34696;BME280;20918;51.138;17.370;2022-11-10T02:57:24;100349.19;;;8.16;85.93
34696;BME280;20918;51.138;17.370;2022-11-10T03:00:43;100348.36;;;8.15;86.03
34696;BME280;20918;51.138;17.370;2022-11-10T03:04:03;100352.20;;;8.17;86.13
34696;BME280;20918;51.138;17.370;2022-11-10T03:07:23;100358.51;;;8.20;86.21
34696;BME280;20918;51.138;17.370;2022-11-10T03:10:43;100366.08;;;8.19;86.30
34696;BME280;20918;51.138;17.370;2022-11-10T03:14:02;100370.41;;;8.20;86.37
34696;BME280;20918;51.138;17.370;2022-11-10T03:17:22;100376.72;;;8.23;86.47
34696;BME280;20918;51.138;17.370;2022-11-10T03:20:41;100376.85;;;8.21;86.60
34696;BME280;20918;51.138;17.370;2022-11-10T03:24:01;100385.77;;;8.20;86.70
34696;BME280;20918;51.138;17.370;2022-11-10T03:27:21;100391.88;;;8.21;86.86
34696;BME280;20918;51.138;17.370;2022-11-10T03:30:42;100398.70;;;8.23;86.93
34696;BME280;20918;51.138;17.370;2022-11-10T03:34:02;100391.59;;;8.24;86.90
34696;BME280;20918;51.138;17.370;2022-11-10T03:37:21;100400.34;;;8.24;86.89
34696;BME280;20918;51.138;17.370;2022-11-10T03:40:41;100403.82;;;8.25;87.03
34696;BME280;20918;51.138;17.370;2022-11-10T03:44:00;100411.29;;;8.25;87.11
34696;BME280;20918;51.138;17.370;2022-11-10T03:47:20;100414.39;;;8.25;87.15
34696;BME280;20918;51.138;17.370;2022-11-10T03:50:40;100410.09;;;8.24;87.13
34696;BME280;20918;51.138;17.370;2022-11-10T03:54:00;100412.41;;;8.23;87.30
34696;BME280;20918;51.138;17.370;2022-11-10T03:57:20;100416.21;;;8.24;87.40
34696;BME280;20918;51.138;17.370;2022-11-10T04:00:39;100425.47;;;8.24;87.43
34696;BME280;20918;51.138;17.370;2022-11-10T04:03:59;100431.25;;;8.24;87.47
34696;BME280;20918;51.138;17.370;2022-11-10T04:07:18;100435.21;;;8.24;87.58
34696;BME280;20918;51.138;17.370;2022-11-10T04:10:56;100441.13;;;8.22;87.78
34696;BME280;20918;51.138;17.370;2022-11-10T04:14:15;100434.88;;;8.23;87.86
34696;BME280;20918;51.138;17.370;2022-11-10T04:17:54;100430.09;;;8.22;87.95
34696;BME280;20918;51.138;17.370;2022-11-10T04:21:15;100426.87;;;8.19;88.06
34696;BME280;20918;51.138;17.370;2022-11-10T04:24:35;100431.13;;;8.16;88.22
34696;BME280;20918;51.138;17.370;2022-11-10T04:27:55;100432.61;;;8.14;88.37
34696;BME280;20918;51.138;17.370;2022-11-10T04:31:16;100423.28;;;8.10;88.45
34696;BME280;20918;51.138;17.370;2022-11-10T04:34:36;100436.00;;;8.11;88.62
34696;BME280;20918;51.138;17.370;2022-11-10T04:37:56;100442.98;;;8.12;88.69
34696;BME280;20918;51.138;17.370;2022-11-10T04:41:16;100434.68;;;8.11;88.76
34696;BME280;20918;51.138;17.370;2022-11-10T04:44:35;100433.23;;;8.12;88.88
34696;BME280;20918;51.138;17.370;2022-11-10T04:47:55;100433.73;;;8.12;88.93
34696;BME280;20918;51.138;17.370;2022-11-10T04:51:15;100436.70;;;8.13;89.02
34696;BME280;20918;51.138;17.370;2022-11-10T04:54:36;100440.67;;;8.13;89.13
34696;BME280;20918;51.138;17.370;2022-11-10T04:57:55;100448.93;;;8.14;89.25
34696;BME280;20918;51.138;17.370;2022-11-10T05:01:17;100453.27;;;8.15;89.29
34696;BME280;20918;51.138;17.370;2022-11-10T05:04:38;100451.58;;;8.14;89.25
34696;BME280;20918;51.138;17.370;2022-11-10T05:07:58;100444.30;;;8.12;89.32
34696;BME280;20918;51.138;17.370;2022-11-10T05:11:17;100462.15;;;8.14;89.37
34696;BME280;20918;51.138;17.370;2022-11-10T05:14:37;100468.42;;;8.13;89.37
34696;BME280;20918;51.138;17.370;2022-11-10T05:17:57;100476.97;;;8.11;89.33
34696;BME280;20918;51.138;17.370;2022-11-10T05:21:17;100475.19;;;8.11;89.46
34696;BME280;20918;51.138;17.370;2022-11-10T05:24:36;100484.28;;;8.13;89.59
34696;BME280;20918;51.138;17.370;2022-11-10T05:27:55;100485.59;;;8.13;89.64
34696;BME280;20918;51.138;17.370;2022-11-10T05:31:15;100487.42;;;8.12;89.70
34696;BME280;20918;51.138;17.370;2022-11-10T05:34:35;100491.22;;;8.14;89.77
34696;BME280;20918;51.138;17.370;2022-11-10T05:37:54;100488.95;;;8.15;89.83
34696;BME280;20918;51.138;17.370;2022-11-10T05:41:14;100500.68;;;8.16;89.86
34696;BME280;20918;51.138;17.370;2022-11-10T05:44:33;100507.66;;;8.17;89.87
34696;BME280;20918;51.138;17.370;2022-11-10T05:47:53;100516.41;;;8.18;89.83
34696;BME280;20918;51.138;17.370;2022-11-10T05:51:13;100516.33;;;8.14;89.84
34696;BME280;20918;51.138;17.370;2022-11-10T05:54:33;100521.44;;;8.11;89.82
34696;BME280;20918;51.138;17.370;2022-11-10T05:57:54;100529.50;;;8.09;89.92
34696;BME280;20918;51.138;17.370;2022-11-10T06:01:14;100525.20;;;8.08;90.04
34696;BME280;20918;51.138;17.370;2022-11-10T06:04:34;100542.59;;;8.11;90.10
34696;BME280;20918;51.138;17.370;2022-11-10T06:07:55;100556.63;;;8.12;90.12
34696;BME280;20918;51.138;17.370;2022-11-10T06:11:22;100565.52;;;8.11;90.11
34696;BME280;20918;51.138;17.370;2022-11-10T06:14:45;100566.84;;;8.11;90.10
34696;BME280;20918;51.138;17.370;2022-11-10T06:18:06;100570.46;;;8.09;90.13
34696;BME280;20918;51.138;17.370;2022-11-10T06:21:27;100581.38;;;8.11;90.19
34696;BME280;20918;51.138;17.370;2022-11-10T06:24:47;100587.98;;;8.11;90.20
34696;BME280;20918;51.138;17.370;2022-11-10T06:28:08;100591.48;;;8.11;90.24
34696;BME280;20918;51.138;17.370;2022-11-10T06:31:28;100597.11;;;8.12;90.24
34696;BME280;20918;51.138;17.370;2022-11-10T06:34:49;100604.20;;;8.12;90.23
34696;BME280;20918;51.138;17.370;2022-11-10T06:38:10;100612.97;;;8.12;90.17
34696;BME280;20918;51.138;17.370;2022-11-10T06:41:38;100613.95;;;8.11;90.20
34696;BME280;20918;51.138;17.370;2022-11-10T06:44:58;100624.86;;;8.12;90.22
34696;BME280;20918;51.138;17.370;2022-11-10T06:48:23;100630.64;;;8.12;90.32
34696;BME280;20918;51.138;17.370;2022-11-10T06:51:48;100643.36;;;8.12;90.49
34696;BME280;20918;51.138;17.370;2022-11-10T06:55:28;100647.88;;;8.16;90.67
34696;BME280;20918;51.138;17.370;2022-11-10T06:58:40;100658.88;;;8.21;90.83
34696;BME280;20918;51.138;17.370;2022-11-10T07:02:04;100657.16;;;8.25;90.90
34696;BME280;20918;51.138;17.370;2022-11-10T07:05:27;100662.38;;;8.31;90.92
34696;BME280;20918;51.138;17.370;2022-11-10T07:08:54;100670.70;;;8.36;90.90
34696;BME280;20918;51.138;17.370;2022-11-10T07:12:16;100673.47;;;8.40;90.91
34696;BME280;20918;51.138;17.370;2022-11-10T07:15:39;100676.53;;;8.45;90.91
34696;BME280;20918;51.138;17.370;2022-11-10T07:18:59;100684.89;;;8.50;90.89
34696;BME280;20918;51.138;17.370;2022-11-10T07:22:19;100689.41;;;8.54;90.82
34696;BME280;20918;51.138;17.370;2022-11-10T07:25:42;100688.63;;;8.58;90.77
34696;BME280;20918;51.138;17.370;2022-11-10T07:29:01;100692.19;;;8.62;90.71
34696;BME280;20918;51.138;17.370;2022-11-10T07:32:21;100703.44;;;8.64;90.61
34696;BME280;20918;51.138;17.370;2022-11-10T07:35:41;100703.53;;;8.68;90.58
34696;BME280;20918;51.138;17.370;2022-11-10T07:39:00;100711.67;;;8.71;90.61
34696;BME280;20918;51.138;17.370;2022-11-10T07:42:20;100715.57;;;8.77;90.57
34696;BME280;20918;51.138;17.370;2022-11-10T07:45:39;100728.64;;;8.78;90.58
34696;BME280;20918;51.138;17.370;2022-11-10T07:48:59;100728.36;;;8.81;90.59
34696;BME280;20918;51.138;17.370;2022-11-10T07:52:18;100737.21;;;8.86;90.56
34696;BME280;20918;51.138;17.370;2022-11-10T07:55:40;100738.46;;;8.91;90.53
34696;BME280;20918;51.138;17.370;2022-11-10T07:59:00;100743.13;;;8.93;90.41
34696;BME280;20918;51.138;17.370;2022-11-10T08:02:20;100748.77;;;8.94;90.24
34696;BME280;20918;51.138;17.370;2022-11-10T08:05:39;100760.05;;;8.96;90.23
34696;BME280;20918;51.138;17.370;2022-11-10T08:09:01;100761.05;;;8.95;90.10
34696;BME280;20918;51.138;17.370;2022-11-10T08:12:23;100763.53;;;8.97;90.10
34696;BME280;20918;51.138;17.370;2022-11-10T08:15:45;100768.48;;;8.96;89.96
34696;BME280;20918;51.138;17.370;2022-11-10T08:19:05;100767.29;;;8.94;89.93
34696;BME280;20918;51.138;17.370;2022-11-10T08:22:27;100770.92;;;8.93;89.79
34696;BME280;20918;51.138;17.370;2022-11-10T08:25:47;100777.55;;;8.93;89.74
34696;BME280;20918;51.138;17.370;2022-11-10T08:29:08;100789.03;;;8.88;89.57
34696;BME280;20918;51.138;17.370;2022-11-10T08:32:28;100785.63;;;8.82;89.56
34696;BME280;20918;51.138;17.370;2022-11-10T08:35:49;100798.77;;;8.78;89.58
34696;BME280;20918;51.138;17.370;2022-11-10T08:39:09;100805.38;;;8.78;89.80
34696;BME280;20918;51.138;17.370;2022-11-10T08:42:30;100804.64;;;8.82;90.01
34696;BME280;20918;51.138;17.370;2022-11-10T08:45:52;100819.06;;;8.93;90.34
34696;BME280;20918;51.138;17.370;2022-11-10T08:49:15;100822.45;;;9.09;90.73
34696;BME280;20918;51.138;17.370;2022-11-10T08:52:34;100825.30;;;9.31;90.96
34696;BME280;20918;51.138;17.370;2022-11-10T08:55:59;100827.22;;;9.58;91.29
34696;BME280;20918;51.138;17.370;2022-11-10T08:59:18;100831.35;;;9.80;91.01
34696;BME280;20918;51.138;17.370;2022-11-10T09:02:38;100834.00;;;9.94;90.62
34696;BME280;20918;51.138;17.370;2022-11-10T09:05:57;100838.48;;;10.07;90.35
34696;BME280;20918;51.138;17.370;2022-11-10T09:09:17;100846.80;;;10.22;89.92
34696;BME280;20918;51.138;17.370;2022-11-10T09:12:36;100834.52;;;10.30;90.21
34696;BME280;20918;51.138;17.370;2022-11-10T09:16:01;100855.32;;;10.53;89.80
34696;BME280;20918;51.138;17.370;2022-11-10T09:19:21;100861.28;;;10.65;89.70
34696;BME280;20918;51.138;17.370;2022-11-10T09:22:40;100872.16;;;10.75;88.99
34696;BME280;20918;51.138;17.370;2022-11-10T09:26:00;100867.94;;;10.83;88.78
34696;BME280;20918;51.138;17.370;2022-11-10T09:29:19;100868.66;;;10.89;88.39
34696;BME280;20918;51.138;17.370;2022-11-10T09:32:40;100879.97;;;11.09;88.38
34696;BME280;20918;51.138;17.370;2022-11-10T09:36:00;100874.26;;;11.57;88.47
34696;BME280;20918;51.138;17.370;2022-11-10T09:39:20;100886.23;;;12.05;87.68
34696;BME280;20918;51.138;17.370;2022-11-10T09:42:40;100887.24;;;12.43;86.20
34696;BME280;20918;51.138;17.370;2022-11-10T09:46:03;100887.84;;;12.75;85.67
34696;BME280;20918;51.138;17.370;2022-11-10T09:49:43;100881.27;;;13.04;84.77
34696;BME280;20918;51.138;17.370;2022-11-10T09:53:11;100890.48;;;13.42;84.06
34696;BME280;20918;51.138;17.370;2022-11-10T09:56:34;100888.83;;;13.57;82.02
34696;BME280;20918;51.138;17.370;2022-11-10T09:59:55;100897.97;;;13.75;82.82
34696;BME280;20918;51.138;17.370;2022-11-10T10:03:18;100894.59;;;13.94;81.99
34696;BME280;20918;51.138;17.370;2022-11-10T10:10:48;100904.13;;;14.44;80.58
34696;BME280;20918;51.138;17.370;2022-11-10T10:14:23;100910.07;;;14.70;79.18
34696;BME280;20918;51.138;17.370;2022-11-10T10:25:46;100910.78;;;14.95;77.24
34696;BME280;20918;51.138;17.370;2022-11-10T10:29:12;100913.83;;;15.11;76.56
34696;BME280;20918;51.138;17.370;2022-11-10T10:32:35;100921.82;;;14.92;75.17
34696;BME280;20918;51.138;17.370;2022-11-10T10:35:55;100911.56;;;14.73;74.77
34696;BME280;20918;51.138;17.370;2022-11-10T10:39:28;100915.92;;;14.70;74.90
34696;BME280;20918;51.138;17.370;2022-11-10T10:42:49;100917.89;;;14.76;73.74
34696;BME280;20918;51.138;17.370;2022-11-10T10:46:11;100920.72;;;14.78;74.03
34696;BME280;20918;51.138;17.370;2022-11-10T10:49:33;100921.12;;;14.94;74.08
34696;BME280;20918;51.138;17.370;2022-11-10T10:53:13;100920.28;;;14.98;71.95
34696;BME280;20918;51.138;17.370;2022-11-10T10:56:40;100925.08;;;15.02;72.71
34696;BME280;20918;51.138;17.370;2022-11-10T11:03:42;100918.40;;;15.02;71.05
34696;BME280;20918;51.138;17.370;2022-11-10T11:07:18;100917.22;;;15.05;71.61
34696;BME280;20918;51.138;17.370;2022-11-10T11:10:43;100919.88;;;15.09;70.08
34696;BME280;20918;51.138;17.370;2022-11-10T11:17:58;100938.44;;;14.71;70.19
34696;BME280;20918;51.138;17.370;2022-11-10T11:21:28;100929.75;;;14.73;69.72
34696;BME280;20918;51.138;17.370;2022-11-10T11:29:15;100939.17;;;14.57;69.37
34696;BME280;20918;51.138;17.370;2022-11-10T11:48:18;100942.87;;;13.09;70.34
34696;BME280;20918;51.138;17.370;2022-11-10T12:00:04;100945.47;;;13.35;71.24
34696;BME280;20918;51.138;17.370;2022-11-10T12:19:37;100954.97;;;13.62;69.39
34696;BME280;20918;51.138;17.370;2022-11-10T12:23:05;100957.30;;;13.57;69.41
34696;BME280;20918;51.138;17.370;2022-11-10T12:30:12;100966.21;;;13.23;69.00
34696;BME280;20918;51.138;17.370;2022-11-10T12:33:37;100970.67;;;12.98;69.20
34696;BME280;20918;51.138;17.370;2022-11-10T12:37:00;100974.06;;;12.78;69.87
34696;BME280;20918;51.138;17.370;2022-11-10T12:40:41;100978.34;;;12.67;70.05
34696;BME280;20918;51.138;17.370;2022-11-10T12:48:02;100986.54;;;12.39;70.38
34696;BME280;20918;51.138;17.370;2022-11-10T12:51:32;100986.54;;;12.39;70.62
34696;BME280;20918;51.138;17.370;2022-11-10T12:54:52;100989.34;;;12.38;70.73
34696;BME280;20918;51.138;17.370;2022-11-10T12:58:13;100997.23;;;12.47;71.18
34696;BME280;20918;51.138;17.370;2022-11-10T13:01:33;100998.58;;;12.55;71.14
34696;BME280;20918;51.138;17.370;2022-11-10T13:05:31;100998.67;;;12.68;71.29
34696;BME280;20918;51.138;17.370;2022-11-10T13:09:00;101005.05;;;12.83;71.14
34696;BME280;20918;51.138;17.370;2022-11-10T13:12:21;100999.80;;;12.99;70.81
34696;BME280;20918;51.138;17.370;2022-11-10T13:15:49;101002.96;;;13.03;70.57
34696;BME280;20918;51.138;17.370;2022-11-10T13:19:59;101008.11;;;12.96;70.41
34696;BME280;20918;51.138;17.370;2022-11-10T13:22:50;101010.09;;;12.90;70.49
34696;BME280;20918;51.138;17.370;2022-11-10T13:26:11;101014.88;;;12.83;70.54
34696;BME280;20918;51.138;17.370;2022-11-10T13:29:53;101019.52;;;12.76;70.44
34696;BME280;20918;51.138;17.370;2022-11-10T13:36:57;101035.39;;;12.60;70.75
34696;BME280;20918;51.138;17.370;2022-11-10T13:40:27;101041.81;;;12.49;70.78
34696;BME280;20918;51.138;17.370;2022-11-10T13:43:57;101054.09;;;12.42;70.83
34696;BME280;20918;51.138;17.370;2022-11-10T13:47:36;101053.67;;;12.33;70.97
34696;BME280;20918;51.138;17.370;2022-11-10T13:58:56;101061.45;;;12.26;71.69
34696;BME280;20918;51.138;17.370;2022-11-10T14:06:29;101083.36;;;12.20;71.84
34696;BME280;20918;51.138;17.370;2022-11-10T14:10:02;101078.48;;;12.16;72.05
34696;BME280;20918;51.138;17.370;2022-11-10T14:13:38;101077.66;;;12.15;72.22
34696;BME280;20918;51.138;17.370;2022-11-10T14:17:20;101086.14;;;12.15;72.41
34696;BME280;20918;51.138;17.370;2022-11-10T14:20:56;101089.61;;;12.11;72.55
34696;BME280;20918;51.138;17.370;2022-11-10T14:24:23;101096.90;;;12.09;72.55
34696;BME280;20918;51.138;17.370;2022-11-10T14:27:44;101102.00;;;12.02;72.61
34696;BME280;20918;51.138;17.370;2022-11-10T14:31:04;101106.00;;;12.02;72.71
34696;BME280;20918;51.138;17.370;2022-11-10T14:34:24;101101.76;;;11.96;72.79
34696;BME280;20918;51.138;17.370;2022-11-10T14:37:45;101111.04;;;11.92;72.86
34696;BME280;20918;51.138;17.370;2022-11-10T14:41:05;101115.88;;;11.82;72.80
34696;BME280;20918;51.138;17.370;2022-11-10T14:44:28;101121.14;;;11.74;72.86
34696;BME280;20918;51.138;17.370;2022-11-10T14:47:53;101123.54;;;11.67;72.84
34696;BME280;20918;51.138;17.370;2022-11-10T14:51:14;101129.45;;;11.61;72.88
34696;BME280;20918;51.138;17.370;2022-11-10T14:54:37;101131.62;;;11.48;72.85
34696;BME280;20918;51.138;17.370;2022-11-10T14:58:19;101131.48;;;11.36;72.91
34696;BME280;20918;51.138;17.370;2022-11-10T15:01:51;101134.17;;;11.26;72.89
34696;BME280;20918;51.138;17.370;2022-11-10T15:05:14;101143.18;;;11.15;72.89
34696;BME280;20918;51.138;17.370;2022-11-10T15:08:35;101149.34;;;11.06;72.93
34696;BME280;20918;51.138;17.370;2022-11-10T15:15:39;101156.53;;;10.86;72.89
34696;BME280;20918;51.138;17.370;2022-11-10T15:23:00;101173.34;;;10.67;73.02
34696;BME280;20918;51.138;17.370;2022-11-10T15:26:23;101179.69;;;10.61;73.12
34696;BME280;20918;51.138;17.370;2022-11-10T15:29:44;101188.50;;;10.51;73.12
34696;BME280;20918;51.138;17.370;2022-11-10T15:33:08;101181.80;;;10.38;73.22
34696;BME280;20918;51.138;17.370;2022-11-10T15:36:31;101188.66;;;10.30;73.33
34696;BME280;20918;51.138;17.370;2022-11-10T15:43:50;101200.26;;;10.14;73.50
34696;BME280;20918;51.138;17.370;2022-11-10T15:47:11;101205.75;;;10.07;73.58
34696;BME280;20918;51.138;17.370;2022-11-10T15:50:32;101206.58;;;9.98;73.61
34696;BME280;20918;51.138;17.370;2022-11-10T15:53:51;101218.69;;;9.91;73.72
34696;BME280;20918;51.138;17.370;2022-11-10T15:57:14;101224.80;;;9.81;73.79
34696;BME280;20918;51.138;17.370;2022-11-10T16:00:35;101233.30;;;9.75;73.88
34696;BME280;20918;51.138;17.370;2022-11-10T16:03:55;101230.81;;;9.68;73.97
34696;BME280;20918;51.138;17.370;2022-11-10T16:07:15;101233.29;;;9.60;74.03
34696;BME280;20918;51.138;17.370;2022-11-10T16:10:35;101245.75;;;9.54;73.95
34696;BME280;20918;51.138;17.370;2022-11-10T16:13:55;101250.19;;;9.43;74.22
34696;BME280;20918;51.138;17.370;2022-11-10T16:17:16;101250.27;;;9.32;74.28
34696;BME280;20918;51.138;17.370;2022-11-10T16:20:36;101268.95;;;9.25;74.48
34696;BME280;20918;51.138;17.370;2022-11-10T16:23:56;101278.61;;;9.20;74.70
34696;BME280;20918;51.138;17.370;2022-11-10T16:27:16;101290.93;;;9.16;74.88
34696;BME280;20918;51.138;17.370;2022-11-10T16:30:36;101297.09;;;9.11;75.12
34696;BME280;20918;51.138;17.370;2022-11-10T16:33:55;101301.92;;;9.06;75.04
34696;BME280;20918;51.138;17.370;2022-11-10T16:37:15;101295.96;;;8.92;75.22
34696;BME280;20918;51.138;17.370;2022-11-10T16:40:36;101327.74;;;8.87;75.23
34696;BME280;20918;51.138;17.370;2022-11-10T16:43:55;101327.74;;;8.87;75.23
34696;BME280;20918;51.138;17.370;2022-11-10T16:47:17;101327.56;;;8.79;75.52
34696;BME280;20918;51.138;17.370;2022-11-10T16:50:37;101341.79;;;8.61;75.69
34696;BME280;20918;51.138;17.370;2022-11-10T16:53:57;101341.69;;;8.57;75.90
34696;BME280;20918;51.138;17.370;2022-11-10T16:57:17;101341.69;;;8.57;75.90
34696;BME280;20918;51.138;17.370;2022-11-10T17:00:39;101344.59;;;8.53;76.45
34696;BME280;20918;51.138;17.370;2022-11-10T17:04:01;101347.23;;;8.53;76.71
34696;BME280;20918;51.138;17.370;2022-11-10T17:07:25;101354.45;;;8.51;76.82
34696;BME280;20918;51.138;17.370;2022-11-10T17:10:47;101350.58;;;8.50;77.06
34696;BME280;20918;51.138;17.370;2022-11-10T17:14:11;101363.12;;;8.48;76.92
34696;BME280;20918;51.138;17.370;2022-11-10T17:17:33;101359.85;;;8.44;77.08
34696;BME280;20918;51.138;17.370;2022-11-10T17:20:53;101367.34;;;8.39;77.02
34696;BME280;20918;51.138;17.370;2022-11-10T17:24:14;101362.37;;;8.35;77.16
34696;BME280;20918;51.138;17.370;2022-11-10T17:27:34;101368.84;;;8.30;77.28
34696;BME280;20918;51.138;17.370;2022-11-10T17:30:53;101372.22;;;8.27;77.23
34696;BME280;20918;51.138;17.370;2022-11-10T17:34:14;101368.16;;;8.23;77.38
34696;BME280;20918;51.138;17.370;2022-11-10T17:37:38;101369.97;;;8.17;77.46
34696;BME280;20918;51.138;17.370;2022-11-10T17:41:01;101366.84;;;8.12;77.53
34696;BME280;20918;51.138;17.370;2022-11-10T17:44:21;101367.32;;;8.05;77.67
34696;BME280;20918;51.138;17.370;2022-11-10T17:47:40;101367.67;;;8.01;77.82
34696;BME280;20918;51.138;17.370;2022-11-10T17:51:00;101366.83;;;7.95;77.82
34696;BME280;20918;51.138;17.370;2022-11-10T17:54:20;101364.77;;;7.87;77.89
34696;BME280;20918;51.138;17.370;2022-11-10T17:57:39;101363.20;;;7.79;78.00
34696;BME280;20918;51.138;17.370;2022-11-10T18:00:58;101366.56;;;7.70;78.09
34696;BME280;20918;51.138;17.370;2022-11-10T18:04:18;101352.61;;;7.62;78.18
34696;BME280;20918;51.138;17.370;2022-11-10T18:07:38;101357.05;;;7.56;78.53
34696;BME280;20918;51.138;17.370;2022-11-10T18:10:59;101368.68;;;7.53;78.77
34696;BME280;20918;51.138;17.370;2022-11-10T18:14:19;101371.44;;;7.46;78.65
34696;BME280;20918;51.138;17.370;2022-11-10T18:17:39;101371.88;;;7.40;78.88
34696;BME280;20918;51.138;17.370;2022-11-10T18:20:59;101377.30;;;7.38;79.00
34696;BME280;20918;51.138;17.370;2022-11-10T18:24:21;101376.56;;;7.36;79.09
34696;BME280;20918;51.138;17.370;2022-11-10T18:27:40;101378.95;;;7.34;79.09
34696;BME280;20918;51.138;17.370;2022-11-10T18:31:09;101380.02;;;7.31;79.13
34696;BME280;20918;51.138;17.370;2022-11-10T18:34:31;101374.72;;;7.26;79.14
34696;BME280;20918;51.138;17.370;2022-11-10T18:37:50;101381.42;;;7.18;79.20
34696;BME280;20918;51.138;17.370;2022-11-10T18:41:10;101392.31;;;7.14;79.45
34696;BME280;20918;51.138;17.370;2022-11-10T18:44:49;101403.10;;;7.11;79.48
34696;BME280;20918;51.138;17.370;2022-11-10T18:48:10;101398.53;;;7.07;79.64
34696;BME280;20918;51.138;17.370;2022-11-10T18:51:29;101404.39;;;7.05;79.66
34696;BME280;20918;51.138;17.370;2022-11-10T18:54:50;101408.00;;;7.04;79.97
34696;BME280;20918;51.138;17.370;2022-11-10T18:58:09;101417.23;;;7.04;80.11
34696;BME280;20918;51.138;17.370;2022-11-10T19:01:29;101417.94;;;7.06;80.38
34696;BME280;20918;51.138;17.370;2022-11-10T19:04:48;101417.36;;;7.08;80.37
34696;BME280;20918;51.138;17.370;2022-11-10T19:08:08;101426.37;;;7.11;80.60
34696;BME280;20918;51.138;17.370;2022-11-10T19:11:30;101428.43;;;7.13;80.73